< < Back
Terminal Aerodrome Forecast


Current Version              Previous Versions:   1  2  3  4  5  6  7  8  9  

Terminal Aerodrome Forecast

603
FTUS42 KTAE 211732
TAFABY
TAF
KABY 211732Z 2118/2218 30010G15KT P6SM FEW050
     FM220100 29003KT P6SM SCT200
     FM221400 02005KT P6SM FEW200=

Latest METAR

263
SAUS70 KWBC 221900 RRD
MTRABY
METAR KABY 221853Z VRB04KT 10SM CLR 27/10 A3018 RMK AO2 SLP217
T02720100


USA.gov is the U.S. government's official web portal to all federal, state and local government web resources and services.